sensor_id;sensor_type;location;lat;lon;timestamp;pressure;altitude;pressure_sealevel;temperature;humidity
76746;BME280;65671;49.976;20.038;2023-04-03T00:01:01;98234.19;;;1.30;94.61
76746;BME280;65671;49.976;20.038;2023-04-03T00:03:26;98229.56;;;1.19;95.09
76746;BME280;65671;49.976;20.038;2023-04-03T00:05:51;98232.44;;;1.13;95.14
76746;BME280;65671;49.976;20.038;2023-04-03T00:08:17;98230.00;;;1.00;94.77
76746;BME280;65671;49.976;20.038;2023-04-03T00:10:43;98239.47;;;0.89;95.23
76746;BME280;65671;49.976;20.038;2023-04-03T00:13:09;98234.06;;;0.77;95.14
76746;BME280;65671;49.976;20.038;2023-04-03T00:15:35;98247.72;;;0.67;95.25
76746;BME280;65671;49.976;20.038;2023-04-03T00:18:03;98241.00;;;0.61;95.54
76746;BME280;65671;49.976;20.038;2023-04-03T00:20:29;98236.97;;;0.54;96.38
76746;BME280;65671;49.976;20.038;2023-04-03T00:22:55;98236.81;;;0.51;96.84
76746;BME280;65671;49.976;20.038;2023-04-03T00:25:21;98240.56;;;0.59;96.84
76746;BME280;65671;49.976;20.038;2023-04-03T00:27:46;98231.34;;;0.56;96.49
76746;BME280;65671;49.976;20.038;2023-04-03T00:30:13;98246.94;;;0.66;97.06
76746;BME280;65671;49.976;20.038;2023-04-03T00:32:39;98244.09;;;0.71;96.02
76746;BME280;65671;49.976;20.038;2023-04-03T00:35:05;98243.16;;;0.76;96.17
76746;BME280;65671;49.976;20.038;2023-04-03T00:37:30;98239.38;;;0.77;96.01
76746;BME280;65671;49.976;20.038;2023-04-03T00:39:56;98245.81;;;0.76;96.56
76746;BME280;65671;49.976;20.038;2023-04-03T00:42:21;98249.56;;;0.75;96.14
76746;BME280;65671;49.976;20.038;2023-04-03T00:47:16;98251.13;;;0.76;95.84
76746;BME280;65671;49.976;20.038;2023-04-03T00:49:44;98251.00;;;0.72;96.33
76746;BME280;65671;49.976;20.038;2023-04-03T00:52:15;98248.31;;;0.72;96.15
76746;BME280;65671;49.976;20.038;2023-04-03T00:54:42;98249.59;;;0.66;96.45
76746;BME280;65671;49.976;20.038;2023-04-03T00:57:09;98253.28;;;0.53;95.63
76746;BME280;65671;49.976;20.038;2023-04-03T00:59:41;98258.28;;;0.54;97.06
76746;BME280;65671;49.976;20.038;2023-04-03T01:02:09;98250.88;;;0.60;96.59
76746;BME280;65671;49.976;20.038;2023-04-03T01:04:35;98256.13;;;0.39;96.32
76746;BME280;65671;49.976;20.038;2023-04-03T01:07:06;98263.97;;;0.36;96.59
76746;BME280;65671;49.976;20.038;2023-04-03T01:09:33;98251.94;;;0.21;96.87
76746;BME280;65671;49.976;20.038;2023-04-03T01:12:21;98269.00;;;0.37;97.05
76746;BME280;65671;49.976;20.038;2023-04-03T01:14:50;98267.13;;;0.29;97.71
76746;BME280;65671;49.976;20.038;2023-04-03T01:17:33;98269.94;;;0.24;97.84
76746;BME280;65671;49.976;20.038;2023-04-03T01:22:56;98275.75;;;0.26;97.85
76746;BME280;65671;49.976;20.038;2023-04-03T01:25:24;98276.22;;;0.28;97.16
76746;BME280;65671;49.976;20.038;2023-04-03T01:27:50;98267.91;;;0.21;97.50
76746;BME280;65671;49.976;20.038;2023-04-03T01:30:18;98278.91;;;0.11;98.07
76746;BME280;65671;49.976;20.038;2023-04-03T01:32:45;98269.03;;;0.20;97.51
76746;BME280;65671;49.976;20.038;2023-04-03T01:35:11;98279.84;;;0.15;96.97
76746;BME280;65671;49.976;20.038;2023-04-03T01:37:37;98283.13;;;0.12;97.44
76746;BME280;65671;49.976;20.038;2023-04-03T01:40:03;98284.06;;;0.25;97.66
76746;BME280;65671;49.976;20.038;2023-04-03T01:42:29;98277.50;;;0.22;97.39
76746;BME280;65671;49.976;20.038;2023-04-03T01:44:55;98283.56;;;0.31;97.13
76746;BME280;65671;49.976;20.038;2023-04-03T01:47:21;98287.53;;;0.17;97.05
76746;BME280;65671;49.976;20.038;2023-04-03T01:49:46;98287.81;;;0.15;96.60
76746;BME280;65671;49.976;20.038;2023-04-03T01:52:12;98291.75;;;0.18;97.55
76746;BME280;65671;49.976;20.038;2023-04-03T01:54:37;98287.06;;;0.06;97.20
76746;BME280;65671;49.976;20.038;2023-04-03T01:57:03;98289.22;;;0.21;96.74
76746;BME280;65671;49.976;20.038;2023-04-03T01:59:28;98284.84;;;0.25;97.37
76746;BME280;65671;49.976;20.038;2023-04-03T02:01:54;98285.03;;;0.20;97.00
76746;BME280;65671;49.976;20.038;2023-04-03T02:04:20;98291.25;;;0.24;96.96
76746;BME280;65671;49.976;20.038;2023-04-03T02:06:45;98289.22;;;0.21;97.47
76746;BME280;65671;49.976;20.038;2023-04-03T02:09:11;98299.09;;;0.12;97.09
76746;BME280;65671;49.976;20.038;2023-04-03T02:11:37;98303.03;;;0.06;97.67
76746;BME280;65671;49.976;20.038;2023-04-03T02:14:03;98303.03;;;0.15;98.00
76746;BME280;65671;49.976;20.038;2023-04-03T02:16:29;98292.50;;;0.18;97.35
76746;BME280;65671;49.976;20.038;2023-04-03T02:18:55;98293.94;;;0.07;96.94
76746;BME280;65671;49.976;20.038;2023-04-03T02:21:21;98291.44;;;0.11;98.18
76746;BME280;65671;49.976;20.038;2023-04-03T02:23:47;98298.63;;;0.19;97.52
76746;BME280;65671;49.976;20.038;2023-04-03T02:26:14;98301.75;;;0.29;97.13
76746;BME280;65671;49.976;20.038;2023-04-03T02:28:41;98301.47;;;0.05;97.43
76746;BME280;65671;49.976;20.038;2023-04-03T02:31:07;98298.00;;;0.22;97.37
76746;BME280;65671;49.976;20.038;2023-04-03T02:33:34;98294.09;;;0.11;96.78
76746;BME280;65671;49.976;20.038;2023-04-03T02:36:05;98285.94;;;0.16;97.58
76746;BME280;65671;49.976;20.038;2023-04-03T02:38:32;98299.59;;;0.06;96.82
76746;BME280;65671;49.976;20.038;2023-04-03T02:41:06;98306.94;;;0.26;96.50
76746;BME280;65671;49.976;20.038;2023-04-03T02:43:32;98308.03;;;0.25;97.11
76746;BME280;65671;49.976;20.038;2023-04-03T02:45:58;98304.91;;;0.14;97.61
76746;BME280;65671;49.976;20.038;2023-04-03T02:48:24;98305.69;;;0.15;97.75
76746;BME280;65671;49.976;20.038;2023-04-03T02:50:49;98305.38;;;0.08;96.75
76746;BME280;65671;49.976;20.038;2023-04-03T02:53:15;98313.38;;;0.08;97.51
76746;BME280;65671;49.976;20.038;2023-04-03T02:55:41;98319.34;;;-0.04;96.53
76746;BME280;65671;49.976;20.038;2023-04-03T02:58:06;98312.28;;;0.00;96.77
76746;BME280;65671;49.976;20.038;2023-04-03T03:00:32;98314.63;;;0.02;97.48
76746;BME280;65671;49.976;20.038;2023-04-03T03:02:58;98322.00;;;-0.04;96.95
76746;BME280;65671;49.976;20.038;2023-04-03T03:05:23;98315.41;;;0.02;97.36
76746;BME280;65671;49.976;20.038;2023-04-03T03:07:49;98314.97;;;0.00;96.99
76746;BME280;65671;49.976;20.038;2023-04-03T03:10:14;98321.53;;;0.03;96.71
76746;BME280;65671;49.976;20.038;2023-04-03T03:12:40;98321.66;;;-0.03;96.85
76746;BME280;65671;49.976;20.038;2023-04-03T03:15:06;98317.13;;;0.07;96.98
76746;BME280;65671;49.976;20.038;2023-04-03T03:17:32;98325.13;;;-0.02;96.79
76746;BME280;65671;49.976;20.038;2023-04-03T03:19:57;98322.63;;;-0.07;96.98
76746;BME280;65671;49.976;20.038;2023-04-03T03:22:23;98337.34;;;-0.10;96.52
76746;BME280;65671;49.976;20.038;2023-04-03T03:24:48;98318.88;;;-0.06;97.81
76746;BME280;65671;49.976;20.038;2023-04-03T03:27:14;98321.66;;;-0.03;96.47
76746;BME280;65671;49.976;20.038;2023-04-03T03:29:41;98329.19;;;0.04;96.40
76746;BME280;65671;49.976;20.038;2023-04-03T03:32:07;98330.75;;;0.05;96.41
76746;BME280;65671;49.976;20.038;2023-04-03T03:34:32;98330.28;;;-0.06;96.85
76746;BME280;65671;49.976;20.038;2023-04-03T03:36:58;98328.41;;;-0.14;97.09
76746;BME280;65671;49.976;20.038;2023-04-03T03:39:23;98333.44;;;-0.04;97.96
76746;BME280;65671;49.976;20.038;2023-04-03T03:41:50;98329.50;;;0.03;97.09
76746;BME280;65671;49.976;20.038;2023-04-03T03:44:15;98332.31;;;0.06;97.12
76746;BME280;65671;49.976;20.038;2023-04-03T03:46:41;98330.91;;;0.09;96.81
76746;BME280;65671;49.976;20.038;2023-04-03T03:49:06;98331.38;;;0.11;95.76
76746;BME280;65671;49.976;20.038;2023-04-03T03:51:32;98328.72;;;0.11;95.68
76746;BME280;65671;49.976;20.038;2023-04-03T03:53:57;98334.97;;;0.23;95.36
76746;BME280;65671;49.976;20.038;2023-04-03T03:56:23;98340.94;;;0.12;96.41
76746;BME280;65671;49.976;20.038;2023-04-03T03:58:48;98341.06;;;0.15;96.51
76746;BME280;65671;49.976;20.038;2023-04-03T04:01:15;98342.31;;;0.09;95.96
76746;BME280;65671;49.976;20.038;2023-04-03T04:03:42;98347.19;;;0.07;95.89
76746;BME280;65671;49.976;20.038;2023-04-03T04:06:07;98339.06;;;-0.05;96.12
76746;BME280;65671;49.976;20.038;2023-04-03T04:08:33;98354.09;;;-0.01;96.54
76746;BME280;65671;49.976;20.038;2023-04-03T04:10:58;98352.06;;;0.05;96.30
76746;BME280;65671;49.976;20.038;2023-04-03T04:13:24;98354.38;;;0.07;95.97
76746;BME280;65671;49.976;20.038;2023-04-03T04:15:49;98358.31;;;0.09;95.58
76746;BME280;65671;49.976;20.038;2023-04-03T04:18:15;98359.88;;;0.10;96.06
76746;BME280;65671;49.976;20.038;2023-04-03T04:20:41;98364.25;;;0.06;96.95
76746;BME280;65671;49.976;20.038;2023-04-03T04:23:06;98363.00;;;-0.05;95.73
76746;BME280;65671;49.976;20.038;2023-04-03T04:25:32;98356.13;;;-0.06;95.92
76746;BME280;65671;49.976;20.038;2023-04-03T04:27:58;98360.97;;;0.00;95.56
76746;BME280;65671;49.976;20.038;2023-04-03T04:30:23;98360.84;;;-0.03;95.98
76746;BME280;65671;49.976;20.038;2023-04-03T04:32:48;98357.22;;;-0.07;97.00
76746;BME280;65671;49.976;20.038;2023-04-03T04:35:15;98369.56;;;-0.28;96.40
76746;BME280;65671;49.976;20.038;2023-04-03T04:37:40;98360.00;;;-0.29;97.35
76746;BME280;65671;49.976;20.038;2023-04-03T04:40:07;98358.28;;;-0.25;95.83
76746;BME280;65671;49.976;20.038;2023-04-03T04:42:33;98361.41;;;-0.23;96.36
76746;BME280;65671;49.976;20.038;2023-04-03T04:44:58;98377.56;;;-0.20;96.47
76746;BME280;65671;49.976;20.038;2023-04-03T04:47:23;98372.22;;;-0.28;95.51
76746;BME280;65671;49.976;20.038;2023-04-03T04:49:49;98368.16;;;-0.26;95.55
76746;BME280;65671;49.976;20.038;2023-04-03T04:52:15;98373.16;;;-0.33;96.05
76746;BME280;65671;49.976;20.038;2023-04-03T04:54:41;98378.50;;;-0.33;95.92
76746;BME280;65671;49.976;20.038;2023-04-03T04:57:06;98368.28;;;-0.48;95.17
76746;BME280;65671;49.976;20.038;2023-04-03T04:59:32;98378.59;;;-0.46;95.68
76746;BME280;65671;49.976;20.038;2023-04-03T05:01:58;98379.91;;;-0.27;95.66
76746;BME280;65671;49.976;20.038;2023-04-03T05:04:23;98383.94;;;-0.38;95.17
76746;BME280;65671;49.976;20.038;2023-04-03T05:06:49;98386.75;;;-0.43;94.19
76746;BME280;65671;49.976;20.038;2023-04-03T05:09:14;98389.41;;;-0.43;94.23
76746;BME280;65671;49.976;20.038;2023-04-03T05:11:40;98394.72;;;-0.43;95.50
76746;BME280;65671;49.976;20.038;2023-04-03T05:14:05;98395.66;;;-0.47;95.63
76746;BME280;65671;49.976;20.038;2023-04-03T05:16:32;98398.34;;;-0.39;95.51
76746;BME280;65671;49.976;20.038;2023-04-03T05:18:57;98393.16;;;-0.44;95.38
76746;BME280;65671;49.976;20.038;2023-04-03T05:21:23;98398.34;;;-0.47;96.34
76746;BME280;65671;49.976;20.038;2023-04-03T05:23:51;98403.19;;;-0.41;96.21
76746;BME280;65671;49.976;20.038;2023-04-03T05:26:17;98403.94;;;-0.49;94.19
76746;BME280;65671;49.976;20.038;2023-04-03T05:28:43;98402.53;;;-0.55;95.11
76746;BME280;65671;49.976;20.038;2023-04-03T05:31:09;98406.13;;;-0.51;95.91
76746;BME280;65671;49.976;20.038;2023-04-03T05:33:34;98404.06;;;-0.63;95.63
76746;BME280;65671;49.976;20.038;2023-04-03T05:36:03;98407.66;;;-0.59;94.93
76746;BME280;65671;49.976;20.038;2023-04-03T05:38:29;98405.53;;;-0.39;95.72
76746;BME280;65671;49.976;20.038;2023-04-03T05:40:55;98431.50;;;-0.45;95.14
76746;BME280;65671;49.976;20.038;2023-04-03T05:43:21;98410.66;;;-0.51;96.15
76746;BME280;65671;49.976;20.038;2023-04-03T05:45:47;98414.72;;;-0.54;97.12
76746;BME280;65671;49.976;20.038;2023-04-03T05:48:13;98409.44;;;-0.37;95.80
76746;BME280;65671;49.976;20.038;2023-04-03T05:50:39;98411.31;;;-0.46;95.84
76746;BME280;65671;49.976;20.038;2023-04-03T05:53:07;98411.47;;;-0.42;94.67
76746;BME280;65671;49.976;20.038;2023-04-03T05:55:38;98417.84;;;-0.52;94.93
76746;BME280;65671;49.976;20.038;2023-04-03T05:58:04;98422.09;;;-0.51;94.85
76746;BME280;65671;49.976;20.038;2023-04-03T06:00:29;98420.53;;;-0.43;94.58
76746;BME280;65671;49.976;20.038;2023-04-03T06:02:55;98423.06;;;-0.38;94.13
76746;BME280;65671;49.976;20.038;2023-04-03T06:05:20;98426.34;;;-0.41;94.43
76746;BME280;65671;49.976;20.038;2023-04-03T06:07:46;98424.44;;;-0.49;93.88
76746;BME280;65671;49.976;20.038;2023-04-03T06:10:12;98432.94;;;-0.39;94.36
76746;BME280;65671;49.976;20.038;2023-04-03T06:12:38;98435.25;;;-0.37;93.59
76746;BME280;65671;49.976;20.038;2023-04-03T06:15:04;98435.84;;;-0.49;93.70
76746;BME280;65671;49.976;20.038;2023-04-03T06:17:30;98438.22;;;-0.47;93.55
76746;BME280;65671;49.976;20.038;2023-04-03T06:19:56;98436.19;;;-0.50;91.75
76746;BME280;65671;49.976;20.038;2023-04-03T06:22:23;98442.13;;;-0.53;93.19
76746;BME280;65671;49.976;20.038;2023-04-03T06:24:50;98446.84;;;-0.42;93.68
76746;BME280;65671;49.976;20.038;2023-04-03T06:27:16;98440.59;;;-0.37;92.69
76746;BME280;65671;49.976;20.038;2023-04-03T06:29:42;98447.63;;;-0.41;91.11
76746;BME280;65671;49.976;20.038;2023-04-03T06:32:08;98451.56;;;-0.30;92.12
76746;BME280;65671;49.976;20.038;2023-04-03T06:34:34;98454.53;;;-0.32;90.22
76746;BME280;65671;49.976;20.038;2023-04-03T06:36:59;98450.50;;;-0.21;90.77
76746;BME280;65671;49.976;20.038;2023-04-03T06:39:25;98456.91;;;-0.30;89.29
76746;BME280;65671;49.976;20.038;2023-04-03T06:41:51;98457.19;;;-0.32;88.75
76746;BME280;65671;49.976;20.038;2023-04-03T06:44:16;98452.06;;;-0.11;88.97
76746;BME280;65671;49.976;20.038;2023-04-03T06:46:43;98466.47;;;-0.21;88.75
76746;BME280;65671;49.976;20.038;2023-04-03T06:49:09;98467.13;;;-0.15;89.27
76746;BME280;65671;49.976;20.038;2023-04-03T06:51:36;98464.47;;;0.02;89.34
76746;BME280;65671;49.976;20.038;2023-04-03T06:54:03;98469.50;;;0.12;88.55
76746;BME280;65671;49.976;20.038;2023-04-03T06:56:28;98464.50;;;0.19;87.89
76746;BME280;65671;49.976;20.038;2023-04-03T06:58:55;98471.09;;;0.30;85.43
76746;BME280;65671;49.976;20.038;2023-04-03T07:01:22;98480.66;;;0.48;85.46
76746;BME280;65671;49.976;20.038;2023-04-03T07:03:48;98470.94;;;0.35;86.51
76746;BME280;65671;49.976;20.038;2023-04-03T07:06:15;98482.22;;;0.32;84.72
76746;BME280;65671;49.976;20.038;2023-04-03T07:08:42;98482.06;;;0.20;85.19
76746;BME280;65671;49.976;20.038;2023-04-03T07:11:10;98477.03;;;0.27;84.69
76746;BME280;65671;49.976;20.038;2023-04-03T07:13:37;98477.53;;;0.38;83.33
76746;BME280;65671;49.976;20.038;2023-04-03T07:16:03;98485.81;;;0.28;82.28
76746;BME280;65671;49.976;20.038;2023-04-03T07:18:31;98488.47;;;0.28;85.22
76746;BME280;65671;49.976;20.038;2023-04-03T07:20:56;98487.22;;;0.42;82.62
76746;BME280;65671;49.976;20.038;2023-04-03T07:23:23;98490.97;;;0.24;80.58
76746;BME280;65671;49.976;20.038;2023-04-03T07:25:50;98496.28;;;0.24;83.78
76746;BME280;65671;49.976;20.038;2023-04-03T07:28:17;98496.47;;;0.45;82.52
76746;BME280;65671;49.976;20.038;2023-04-03T07:30:45;98503.38;;;0.72;82.16
76746;BME280;65671;49.976;20.038;2023-04-03T07:33:12;98488.50;;;0.71;80.94
76746;BME280;65671;49.976;20.038;2023-04-03T07:35:39;98504.78;;;0.86;82.44
76746;BME280;65671;49.976;20.038;2023-04-03T07:38:04;98511.94;;;1.20;79.80
76746;BME280;65671;49.976;20.038;2023-04-03T07:40:30;98509.34;;;0.60;76.68
76746;BME280;65671;49.976;20.038;2023-04-03T07:42:56;98518.13;;;0.61;78.10
76746;BME280;65671;49.976;20.038;2023-04-03T07:45:22;98525.03;;;0.70;78.84
76746;BME280;65671;49.976;20.038;2023-04-03T07:47:48;98512.00;;;0.43;78.28
76746;BME280;65671;49.976;20.038;2023-04-03T07:50:14;98506.84;;;0.64;76.41
76746;BME280;65671;49.976;20.038;2023-04-03T07:52:40;98522.31;;;0.36;77.71
76746;BME280;65671;49.976;20.038;2023-04-03T07:55:06;98529.41;;;0.75;80.89
76746;BME280;65671;49.976;20.038;2023-04-03T07:57:32;98518.41;;;0.50;79.94
76746;BME280;65671;49.976;20.038;2023-04-03T07:59:57;98516.22;;;0.78;76.97
76746;BME280;65671;49.976;20.038;2023-04-03T08:02:23;98529.84;;;0.60;77.95
76746;BME280;65671;49.976;20.038;2023-04-03T08:04:48;98519.84;;;0.82;78.77
76746;BME280;65671;49.976;20.038;2023-04-03T08:07:14;98537.72;;;0.65;76.27
76746;BME280;65671;49.976;20.038;2023-04-03T08:09:40;98528.16;;;0.72;78.15
76746;BME280;65671;49.976;20.038;2023-04-03T08:12:06;98519.69;;;0.79;77.40
76746;BME280;65671;49.976;20.038;2023-04-03T08:14:32;98521.41;;;0.66;78.43
76746;BME280;65671;49.976;20.038;2023-04-03T08:17:00;98536.44;;;0.62;76.29
76746;BME280;65671;49.976;20.038;2023-04-03T08:19:26;98545.38;;;0.57;76.01
76746;BME280;65671;49.976;20.038;2023-04-03T08:21:53;98532.69;;;0.63;78.78
76746;BME280;65671;49.976;20.038;2023-04-03T08:24:19;98539.72;;;1.10;78.52
76746;BME280;65671;49.976;20.038;2023-04-03T08:26:45;98534.06;;;1.29;75.73
76746;BME280;65671;49.976;20.038;2023-04-03T08:29:10;98549.22;;;1.46;80.10
76746;BME280;65671;49.976;20.038;2023-04-03T08:31:36;98537.22;;;0.80;76.72
76746;BME280;65671;49.976;20.038;2023-04-03T08:34:01;98544.47;;;0.71;79.26
76746;BME280;65671;49.976;20.038;2023-04-03T08:36:28;98539.09;;;0.62;78.90
76746;BME280;65671;49.976;20.038;2023-04-03T08:38:55;98536.25;;;0.41;77.64
76746;BME280;65671;49.976;20.038;2023-04-03T08:41:29;98546.19;;;0.58;81.32
76746;BME280;65671;49.976;20.038;2023-04-03T08:49:30;98563.84;;;0.37;81.40
76746;BME280;65671;49.976;20.038;2023-04-03T08:51:57;98544.03;;;0.12;80.06
76746;BME280;65671;49.976;20.038;2023-04-03T08:54:33;98550.59;;;0.06;82.99
76746;BME280;65671;49.976;20.038;2023-04-03T08:57:02;98559.28;;;0.29;80.23
76746;BME280;65671;49.976;20.038;2023-04-03T08:59:33;98553.41;;;0.01;81.55
76746;BME280;65671;49.976;20.038;2023-04-03T09:02:01;98562.88;;;0.24;80.73
76746;BME280;65671;49.976;20.038;2023-04-03T09:04:31;98553.56;;;-0.04;80.78
76746;BME280;65671;49.976;20.038;2023-04-03T09:07:22;98567.44;;;-0.16;80.79
76746;BME280;65671;49.976;20.038;2023-04-03T09:09:49;98569.47;;;-0.21;83.03
76746;BME280;65671;49.976;20.038;2023-04-03T09:12:24;98569.63;;;-0.48;84.33
76746;BME280;65671;49.976;20.038;2023-04-03T09:17:52;98577.97;;;-0.41;85.08
76746;BME280;65671;49.976;20.038;2023-04-03T09:20:49;98582.22;;;-0.32;85.98
76746;BME280;65671;49.976;20.038;2023-04-03T09:23:33;98582.28;;;-0.23;84.48
76746;BME280;65671;49.976;20.038;2023-04-03T09:26:05;98586.72;;;-0.10;85.66
76746;BME280;65671;49.976;20.038;2023-04-03T09:28:38;98591.97;;;0.12;87.85
76746;BME280;65671;49.976;20.038;2023-04-03T09:31:17;98582.91;;;-0.18;87.45
76746;BME280;65671;49.976;20.038;2023-04-03T09:33:44;98589.34;;;-0.19;86.08
76746;BME280;65671;49.976;20.038;2023-04-03T09:36:10;98599.47;;;-0.29;85.75
76746;BME280;65671;49.976;20.038;2023-04-03T09:38:37;98610.09;;;-0.29;85.60
76746;BME280;65671;49.976;20.038;2023-04-03T09:41:06;98615.50;;;-0.21;85.92
76746;BME280;65671;49.976;20.038;2023-04-03T09:43:33;98611.72;;;-0.20;84.12
76746;BME280;65671;49.976;20.038;2023-04-03T09:46:33;98605.94;;;-0.22;82.63
76746;BME280;65671;49.976;20.038;2023-04-03T09:49:05;98611.84;;;0.06;84.20
76746;BME280;65671;49.976;20.038;2023-04-03T09:51:31;98621.53;;;-0.29;84.37
76746;BME280;65671;49.976;20.038;2023-04-03T09:53:58;98617.44;;;-0.04;85.16
76746;BME280;65671;49.976;20.038;2023-04-03T09:56:28;98622.31;;;-0.28;85.29
76746;BME280;65671;49.976;20.038;2023-04-03T10:01:41;98619.03;;;-0.03;86.20
76746;BME280;65671;49.976;20.038;2023-04-03T10:04:15;98621.69;;;-0.03;84.54
76746;BME280;65671;49.976;20.038;2023-04-03T10:06:51;98623.78;;;-0.22;84.82
76746;BME280;65671;49.976;20.038;2023-04-03T10:12:10;98630.47;;;0.06;87.13
76746;BME280;65671;49.976;20.038;2023-04-03T10:14:58;98633.00;;;0.11;85.45
76746;BME280;65671;49.976;20.038;2023-04-03T10:20:33;98645.97;;;0.43;84.58
76746;BME280;65671;49.976;20.038;2023-04-03T10:23:20;98633.47;;;-0.18;85.75
76746;BME280;65671;49.976;20.038;2023-04-03T10:31:25;98640.72;;;-0.18;82.98
76746;BME280;65671;49.976;20.038;2023-04-03T10:36:37;98637.91;;;0.18;83.40
76746;BME280;65671;49.976;20.038;2023-04-03T10:39:28;98644.38;;;0.03;80.48
76746;BME280;65671;49.976;20.038;2023-04-03T10:42:11;98633.94;;;0.15;79.45
76746;BME280;65671;49.976;20.038;2023-04-03T10:44:50;98647.66;;;0.31;80.87
76746;BME280;65671;49.976;20.038;2023-04-03T10:47:45;98648.56;;;0.18;80.95
76746;BME280;65671;49.976;20.038;2023-04-03T10:56:07;98633.22;;;0.23;79.71
76746;BME280;65671;49.976;20.038;2023-04-03T10:58:44;98631.09;;;0.51;76.71
76746;BME280;65671;49.976;20.038;2023-04-03T11:01:18;98629.41;;;0.64;74.52
76746;BME280;65671;49.976;20.038;2023-04-03T11:03:48;98634.25;;;0.53;77.26
76746;BME280;65671;49.976;20.038;2023-04-03T11:06:16;98637.88;;;0.83;77.35
76746;BME280;65671;49.976;20.038;2023-04-03T11:09:02;98643.53;;;0.73;76.18
76746;BME280;65671;49.976;20.038;2023-04-03T11:11:37;98636.00;;;0.75;80.65
76746;BME280;65671;49.976;20.038;2023-04-03T11:16:47;98644.31;;;0.65;78.95
76746;BME280;65671;49.976;20.038;2023-04-03T11:21:42;98646.19;;;0.73;77.91
76746;BME280;65671;49.976;20.038;2023-04-03T11:24:24;98647.94;;;0.86;79.71
76746;BME280;65671;49.976;20.038;2023-04-03T11:26:51;98646.50;;;0.71;74.89
76746;BME280;65671;49.976;20.038;2023-04-03T11:29:25;98647.81;;;0.91;76.70
76746;BME280;65671;49.976;20.038;2023-04-03T11:34:40;98638.22;;;0.90;74.30
76746;BME280;65671;49.976;20.038;2023-04-03T11:37:28;98652.03;;;0.92;73.30
76746;BME280;65671;49.976;20.038;2023-04-03T11:40:04;98642.94;;;1.01;72.60
76746;BME280;65671;49.976;20.038;2023-04-03T11:47:55;98631.13;;;1.80;70.76
76746;BME280;65671;49.976;20.038;2023-04-03T12:14:04;98620.63;;;1.57;70.19
76746;BME280;65671;49.976;20.038;2023-04-03T12:24:16;98627.31;;;1.98;70.05
76746;BME280;65671;49.976;20.038;2023-04-03T12:32:26;98631.75;;;2.23;62.89
76746;BME280;65671;49.976;20.038;2023-04-03T12:40:15;98616.63;;;1.89;62.57
76746;BME280;65671;49.976;20.038;2023-04-03T12:48:31;98634.59;;;2.18;62.16
76746;BME280;65671;49.976;20.038;2023-04-03T12:50:59;98623.56;;;2.57;62.87
76746;BME280;65671;49.976;20.038;2023-04-03T12:53:32;98627.16;;;2.61;63.24
76746;BME280;65671;49.976;20.038;2023-04-03T12:56:28;98654.84;;;2.19;59.99
76746;BME280;65671;49.976;20.038;2023-04-03T12:59:12;98637.28;;;2.18;63.63
76746;BME280;65671;49.976;20.038;2023-04-03T13:01:38;98623.41;;;2.24;59.97
76746;BME280;65671;49.976;20.038;2023-04-03T13:04:03;98635.50;;;2.22;64.04
76746;BME280;65671;49.976;20.038;2023-04-03T13:06:35;98641.78;;;2.26;65.16
76746;BME280;65671;49.976;20.038;2023-04-03T13:09:03;98631.81;;;2.06;64.94
76746;BME280;65671;49.976;20.038;2023-04-03T13:11:38;98633.31;;;1.78;62.43
76746;BME280;65671;49.976;20.038;2023-04-03T13:14:17;98628.63;;;1.57;64.20
76746;BME280;65671;49.976;20.038;2023-04-03T13:16:53;98639.66;;;1.47;63.96
76746;BME280;65671;49.976;20.038;2023-04-03T13:19:19;98635.00;;;1.91;66.42
76746;BME280;65671;49.976;20.038;2023-04-03T13:21:45;98624.75;;;2.01;63.18
76746;BME280;65671;49.976;20.038;2023-04-03T13:24:12;98621.28;;;2.09;63.22
76746;BME280;65671;49.976;20.038;2023-04-03T13:26:38;98633.88;;;2.38;62.95
76746;BME280;65671;49.976;20.038;2023-04-03T13:29:14;98629.78;;;2.03;58.54
76746;BME280;65671;49.976;20.038;2023-04-03T13:31:44;98621.28;;;2.09;58.50
76746;BME280;65671;49.976;20.038;2023-04-03T13:34:13;98628.50;;;2.09;60.29
76746;BME280;65671;49.976;20.038;2023-04-03T13:39:28;98637.75;;;2.11;58.56
76746;BME280;65671;49.976;20.038;2023-04-03T13:41:57;98627.91;;;2.03;60.83
76746;BME280;65671;49.976;20.038;2023-04-03T13:44:41;98638.31;;;1.88;58.34
76746;BME280;65671;49.976;20.038;2023-04-03T13:49:41;98638.25;;;2.05;57.74
76746;BME280;65671;49.976;20.038;2023-04-03T13:52:39;98634.53;;;1.97;56.30
76746;BME280;65671;49.976;20.038;2023-04-03T13:55:18;98645.78;;;2.11;57.15
76746;BME280;65671;49.976;20.038;2023-04-03T14:02:56;98620.75;;;2.54;59.09
76746;BME280;65671;49.976;20.038;2023-04-03T14:05:23;98624.56;;;2.15;57.78
76746;BME280;65671;49.976;20.038;2023-04-03T14:07:51;98627.81;;;2.58;56.52
76746;BME280;65671;49.976;20.038;2023-04-03T14:10:17;98623.94;;;2.97;58.71
76746;BME280;65671;49.976;20.038;2023-04-03T14:12:43;98619.88;;;2.70;55.45
76746;BME280;65671;49.976;20.038;2023-04-03T14:15:38;98632.09;;;2.80;57.79
76746;BME280;65671;49.976;20.038;2023-04-03T14:18:04;98640.63;;;2.73;59.50
76746;BME280;65671;49.976;20.038;2023-04-03T14:20:29;98630.97;;;2.52;57.00
76746;BME280;65671;49.976;20.038;2023-04-03T14:22:55;98624.44;;;2.41;58.70
76746;BME280;65671;49.976;20.038;2023-04-03T14:25:21;98622.56;;;2.41;60.40
76746;BME280;65671;49.976;20.038;2023-04-03T14:27:52;98629.19;;;2.35;59.80
76746;BME280;65671;49.976;20.038;2023-04-03T14:30:28;98612.72;;;2.24;60.62
76746;BME280;65671;49.976;20.038;2023-04-03T14:32:55;98623.78;;;2.14;55.95
76746;BME280;65671;49.976;20.038;2023-04-03T14:35:20;98615.28;;;2.50;56.30
76746;BME280;65671;49.976;20.038;2023-04-03T14:37:46;98616.72;;;2.48;57.95
76746;BME280;65671;49.976;20.038;2023-04-03T14:40:15;98608.50;;;2.53;58.24
76746;BME280;65671;49.976;20.038;2023-04-03T14:42:41;98606.28;;;2.55;58.18
76746;BME280;65671;49.976;20.038;2023-04-03T14:45:08;98615.00;;;2.43;57.38
76746;BME280;65671;49.976;20.038;2023-04-03T14:47:42;98610.00;;;2.62;58.01
76746;BME280;65671;49.976;20.038;2023-04-03T14:50:14;98604.28;;;2.43;58.80
76746;BME280;65671;49.976;20.038;2023-04-03T14:52:40;98606.19;;;2.43;59.65